createdAt,value
2017-10-22T00:02:05.597Z,92.20
2017-10-22T00:04:33.860Z,92.20
2017-10-22T00:07:02.866Z,92.00
2017-10-22T00:09:31.120Z,92.00
2017-10-22T00:12:00.146Z,91.60
2017-10-22T00:14:28.395Z,91.60
2017-10-22T00:16:57.402Z,91.80
2017-10-22T00:19:25.717Z,91.80
2017-10-22T00:21:53.954Z,92.10
2017-10-22T00:24:22.190Z,92.40
2017-10-22T00:26:50.458Z,91.90
2017-10-22T00:29:18.699Z,91.90
2017-10-22T00:31:46.942Z,91.90
2017-10-22T00:34:16.483Z,92.60
2017-10-22T00:36:44.723Z,92.60
2017-10-22T00:39:12.975Z,93.00
2017-10-22T00:41:41.430Z,92.80
2017-10-22T00:44:09.674Z,92.60
2017-10-22T00:46:37.910Z,93.00
2017-10-22T00:49:06.182Z,92.70
2017-10-22T00:51:34.418Z,93.40
2017-10-22T00:54:02.661Z,93.50
2017-10-22T00:56:30.938Z,93.50
2017-10-22T00:58:59.939Z,93.50
2017-10-22T01:01:28.962Z,93.30
2017-10-22T01:03:57.322Z,93.20
2017-10-22T01:06:25.783Z,93.00
2017-10-22T01:08:54.011Z,93.10
2017-10-22T01:11:22.275Z,93.40
2017-10-22T01:13:50.522Z,93.10
2017-10-22T01:16:19.534Z,92.80
2017-10-22T01:18:47.825Z,92.80
2017-10-22T01:21:16.070Z,92.60
2017-10-22T01:23:45.079Z,92.80
2017-10-22T01:26:13.807Z,92.80
2017-10-22T01:28:42.030Z,92.80
2017-10-22T01:31:11.038Z,92.50
2017-10-22T01:33:39.310Z,92.50
2017-10-22T01:36:08.077Z,92.30
2017-10-22T01:38:37.090Z,92.70
2017-10-22T01:41:05.351Z,92.60
2017-10-22T01:43:33.598Z,91.80
2017-10-22T01:46:04.030Z,92.40
2017-10-22T01:48:32.783Z,92.80
2017-10-22T01:51:01.034Z,92.70
2017-10-22T01:53:29.278Z,92.30
2017-10-22T01:55:57.579Z,92.50
2017-10-22T01:58:26.582Z,92.30
2017-10-22T02:00:54.823Z,92.30
2017-10-22T02:03:23.087Z,92.40
2017-10-22T02:05:51.331Z,92.50
2017-10-22T02:08:19.573Z,92.10
2017-10-22T02:10:47.894Z,92.10
2017-10-22T02:13:16.146Z,91.90
2017-10-22T02:15:44.407Z,92.00
2017-10-22T02:18:12.678Z,91.90
2017-10-22T02:20:41.694Z,91.90
2017-10-22T02:23:09.938Z,91.80
2017-10-22T02:25:38.529Z,91.80
2017-10-22T02:28:06.771Z,91.90
2017-10-22T02:30:35.042Z,91.70
2017-10-22T02:33:03.612Z,92.00
2017-10-22T02:35:31.851Z,91.60
2017-10-22T02:38:01.247Z,91.90
2017-10-22T02:40:30.349Z,92.10
2017-10-22T02:42:58.595Z,92.10
2017-10-22T02:45:26.834Z,92.70
2017-10-22T02:47:55.107Z,93.20
2017-10-22T02:50:23.348Z,93.00
2017-10-22T02:52:51.591Z,93.70
2017-10-22T02:55:19.935Z,93.90
2017-10-22T02:57:48.178Z,93.70
2017-10-22T03:00:16.424Z,93.40
2017-10-22T03:02:44.691Z,93.00
2017-10-22T03:05:12.967Z,93.00
2017-10-22T03:07:41.907Z,92.90
2017-10-22T03:10:10.232Z,92.60
2017-10-22T03:12:38.475Z,92.70
2017-10-22T03:15:06.719Z,92.60
2017-10-22T03:17:35.031Z,92.30
2017-10-22T03:20:03.287Z,92.40
2017-10-22T03:22:32.298Z,93.20
2017-10-22T03:25:00.584Z,93.20
2017-10-22T03:27:28.830Z,93.00
2017-10-22T03:29:57.856Z,92.80
2017-10-22T03:32:26.115Z,92.70
2017-10-22T03:34:54.357Z,92.50
2017-10-22T03:37:22.594Z,92.40
2017-10-22T03:39:51.455Z,93.50
2017-10-22T03:42:19.720Z,92.90
2017-10-22T03:44:48.735Z,94.20
2017-10-22T03:47:17.007Z,94.20
2017-10-22T03:49:45.255Z,93.80
2017-10-22T03:52:13.500Z,93.50
2017-10-22T03:54:41.770Z,93.30
2017-10-22T03:57:10.010Z,93.30
2017-10-22T03:59:38.259Z,92.70
2017-10-22T04:02:06.739Z,93.10
2017-10-22T04:04:34.991Z,93.00
2017-10-22T04:07:03.238Z,93.30
2017-10-22T04:09:31.663Z,93.60
2017-10-22T04:11:59.910Z,93.30
2017-10-22T04:14:28.158Z,93.10
2017-10-22T04:16:56.422Z,93.60
2017-10-22T04:19:25.446Z,93.70
2017-10-22T04:21:53.679Z,93.70
2017-10-22T04:24:22.211Z,93.70
2017-10-22T04:26:50.451Z,93.00
2017-10-22T04:29:18.690Z,93.10
2017-10-22T04:31:46.959Z,92.80
2017-10-22T04:34:15.210Z,93.30
2017-10-22T04:36:43.460Z,94.70
2017-10-22T04:39:12.487Z,94.70
2017-10-22T04:41:40.998Z,94.70
2017-10-22T04:44:09.247Z,94.10
2017-10-22T04:46:37.928Z,93.90
2017-10-22T04:49:06.171Z,94.10
2017-10-22T04:51:35.183Z,94.50
2017-10-22T04:54:03.451Z,94.50
2017-10-22T04:56:31.686Z,94.20
2017-10-22T04:58:59.934Z,94.50
2017-10-22T05:01:28.517Z,95.30
2017-10-22T05:03:56.770Z,94.70
2017-10-22T05:06:25.020Z,94.30
2017-10-22T05:08:53.359Z,93.40
2017-10-22T05:11:21.604Z,94.30
2017-10-22T05:13:49.846Z,94.30
2017-10-22T05:16:18.123Z,94.50
2017-10-22T05:18:47.143Z,94.80
2017-10-22T05:21:15.390Z,95.00
2017-10-22T05:23:43.659Z,94.20
2017-10-22T05:26:11.902Z,94.80
2017-10-22T05:28:40.151Z,94.60
2017-10-22T05:31:08.602Z,94.30
2017-10-22T05:33:36.864Z,94.40
2017-10-22T05:36:05.086Z,94.90
2017-10-22T05:38:33.355Z,94.60
2017-10-22T05:41:01.598Z,94.20
2017-10-22T05:43:29.999Z,94.00
2017-10-22T05:45:59.041Z,94.40
2017-10-22T05:48:27.276Z,94.40
2017-10-22T05:50:56.287Z,94.30
2017-10-22T05:53:24.807Z,94.30
2017-10-22T05:55:53.047Z,93.60
2017-10-22T05:58:21.294Z,93.80
2017-10-22T06:00:50.514Z,93.40
2017-10-22T06:03:18.761Z,93.30
2017-10-22T06:05:47.016Z,94.00
2017-10-22T06:08:15.267Z,93.50
2017-10-22T06:10:43.522Z,93.90
2017-10-22T06:13:11.811Z,94.20
2017-10-22T06:15:40.506Z,94.00
2017-10-22T06:18:08.746Z,93.50
2017-10-22T06:20:36.991Z,93.40
2017-10-22T06:23:05.259Z,92.70
2017-10-22T06:25:33.502Z,92.60
2017-10-22T06:28:01.756Z,92.40
2017-10-22T06:30:30.783Z,92.80
2017-10-22T06:32:59.019Z,92.70
2017-10-22T06:35:28.035Z,92.90
2017-10-22T06:37:56.654Z,92.90
2017-10-22T06:40:24.882Z,92.90
2017-10-22T06:42:53.136Z,92.20
2017-10-22T06:45:21.646Z,91.50
2017-10-22T06:47:49.899Z,91.50
2017-10-22T06:50:18.154Z,92.60
2017-10-22T06:52:46.436Z,92.00
2017-10-22T06:55:14.670Z,91.40
2017-10-22T06:57:42.919Z,91.60
2017-10-22T07:00:12.355Z,91.50
2017-10-22T07:02:40.602Z,91.40
2017-10-22T07:05:08.858Z,91.40
2017-10-22T07:07:37.512Z,91.00
2017-10-22T07:10:05.753Z,90.90
2017-10-22T07:12:33.994Z,91.00
2017-10-22T07:15:02.265Z,90.90
2017-10-22T07:17:30.530Z,90.80
2017-10-22T07:19:58.906Z,90.40
2017-10-22T07:22:27.279Z,90.00
2017-10-22T07:24:55.531Z,90.00
2017-10-22T07:27:23.775Z,90.20
2017-10-22T07:29:52.054Z,89.10
2017-10-22T07:32:20.299Z,86.80
2017-10-22T07:34:48.574Z,86.10
2017-10-22T07:37:16.850Z,87.00
2017-10-22T07:39:45.322Z,85.20
2017-10-22T07:42:13.591Z,84.30
2017-10-22T07:44:42.175Z,83.00
2017-10-22T07:47:10.627Z,82.80
2017-10-22T07:49:38.870Z,80.40
2017-10-22T07:52:07.939Z,80.30
2017-10-22T07:54:36.192Z,81.00
2017-10-22T07:57:04.442Z,82.50
2017-10-22T07:59:32.733Z,81.50
2017-10-22T08:02:00.961Z,80.70
2017-10-22T08:04:29.222Z,79.80
2017-10-22T08:06:57.879Z,78.70
2017-10-22T08:09:26.142Z,77.50
2017-10-22T08:11:54.573Z,78.00
2017-10-22T08:14:23.012Z,79.60
2017-10-22T08:16:51.255Z,78.00
2017-10-22T08:19:20.626Z,75.50
2017-10-22T08:21:48.894Z,77.00
2017-10-22T08:24:17.155Z,74.30
2017-10-22T08:26:45.405Z,73.20
2017-10-22T08:29:13.736Z,74.50
2017-10-22T08:31:41.981Z,71.60
2017-10-22T08:34:10.227Z,70.90
2017-10-22T08:36:38.550Z,68.40
2017-10-22T08:39:06.787Z,70.10
2017-10-22T08:41:35.042Z,70.70
2017-10-22T08:44:04.103Z,72.30
2017-10-22T08:46:32.370Z,71.90
2017-10-22T08:49:00.894Z,67.90
2017-10-22T08:51:30.130Z,63.20
2017-10-22T08:53:58.378Z,63.20
2017-10-22T08:56:30.619Z,61.90
2017-10-22T08:58:58.873Z,61.40
2017-10-22T09:01:27.118Z,60.50
2017-10-22T09:03:55.364Z,62.00
2017-10-22T09:06:24.198Z,61.40
2017-10-22T09:08:52.443Z,61.20
2017-10-22T09:11:20.886Z,62.90
2017-10-22T09:13:49.366Z,63.50
2017-10-22T09:16:17.618Z,60.50
2017-10-22T09:18:45.880Z,61.50
2017-10-22T09:21:14.146Z,60.40
2017-10-22T09:23:42.450Z,60.50
2017-10-22T09:26:10.779Z,61.20
2017-10-22T09:28:39.055Z,59.90
2017-10-22T09:31:07.318Z,59.50
2017-10-22T09:33:35.574Z,60.70
2017-10-22T09:36:04.742Z,59.50
2017-10-22T09:38:32.990Z,60.10
2017-10-22T09:41:02.003Z,60.00
2017-10-22T09:43:30.277Z,60.00
2017-10-22T09:45:58.518Z,61.20
2017-10-22T09:48:26.939Z,61.00
2017-10-22T09:50:55.209Z,59.00
2017-10-22T09:53:23.466Z,58.40
2017-10-22T09:55:51.713Z,59.00
2017-10-22T09:58:20.134Z,58.20
2017-10-22T10:00:48.376Z,57.90
2017-10-22T10:03:16.628Z,58.50
2017-10-22T10:05:45.870Z,58.50
2017-10-22T10:08:15.027Z,56.30
2017-10-22T10:10:43.252Z,56.20
2017-10-22T10:13:12.282Z,56.90
2017-10-22T10:15:40.535Z,56.70
2017-10-22T10:18:08.782Z,56.60
2017-10-22T10:20:37.440Z,56.70
2017-10-22T10:23:05.722Z,56.80
2017-10-22T10:25:33.978Z,57.00
2017-10-22T10:28:02.260Z,56.40
2017-10-22T10:30:30.535Z,56.60
2017-10-22T10:32:58.840Z,56.40
2017-10-22T10:35:27.091Z,54.70
2017-10-22T10:37:57.557Z,53.60
2017-10-22T10:40:26.582Z,54.90
2017-10-22T10:42:54.918Z,54.80
2017-10-22T10:45:23.182Z,54.20
2017-10-22T10:47:51.414Z,55.30
2017-10-22T10:50:19.679Z,55.00
2017-10-22T10:52:47.922Z,55.50
2017-10-22T10:55:16.191Z,55.50
2017-10-22T10:57:44.461Z,55.70
2017-10-22T11:00:12.708Z,56.80
2017-10-22T11:02:40.984Z,55.90
2017-10-22T11:05:09.488Z,55.00
2017-10-22T11:07:37.727Z,55.90
2017-10-22T11:10:06.023Z,55.00
2017-10-22T11:12:34.287Z,55.40
2017-10-22T11:15:02.542Z,56.40
2017-10-22T11:17:31.560Z,53.80
2017-10-22T11:19:59.830Z,53.80
2017-10-22T11:22:28.087Z,52.80
2017-10-22T11:24:57.110Z,50.00
2017-10-22T11:27:25.863Z,49.80
2017-10-22T11:29:54.102Z,50.30
2017-10-22T11:32:22.346Z,50.80
2017-10-22T11:34:50.623Z,51.70
2017-10-22T11:37:19.134Z,50.50
2017-10-22T11:39:47.518Z,50.20
2017-10-22T11:42:15.773Z,50.70
2017-10-22T11:44:44.019Z,51.20
2017-10-22T11:47:12.267Z,51.40
2017-10-22T11:49:41.829Z,51.00
2017-10-22T11:52:10.199Z,51.90
2017-10-22T11:54:38.466Z,52.40
2017-10-22T11:57:06.722Z,51.30
2017-10-22T11:59:35.742Z,50.70
2017-10-22T12:02:03.995Z,50.60
2017-10-22T12:04:33.046Z,51.60
2017-10-22T12:07:01.299Z,51.50
2017-10-22T12:09:29.711Z,51.60
2017-10-22T12:11:58.072Z,51.60
2017-10-22T12:14:26.506Z,51.90
2017-10-22T12:16:54.745Z,51.60
2017-10-22T12:19:23.013Z,50.20
2017-10-22T12:21:53.455Z,50.40
2017-10-22T12:24:21.704Z,50.90
2017-10-22T12:26:49.967Z,51.20
2017-10-22T12:29:18.219Z,50.90
2017-10-22T12:31:47.227Z,50.80
2017-10-22T12:34:15.848Z,50.80
2017-10-22T12:36:44.075Z,50.30
2017-10-22T12:39:13.082Z,51.00
2017-10-22T12:41:41.354Z,51.00
2017-10-22T12:44:09.619Z,51.00
2017-10-22T12:46:37.848Z,50.40
2017-10-22T12:49:06.119Z,50.30
2017-10-22T12:51:34.362Z,50.90
2017-10-22T12:54:02.687Z,50.30
2017-10-22T12:56:31.511Z,50.20
2017-10-22T12:58:59.755Z,50.10
2017-10-22T13:01:28.003Z,50.00
2017-10-22T13:03:56.266Z,49.10
2017-10-22T13:06:24.507Z,48.90
2017-10-22T13:08:52.853Z,48.80
2017-10-22T13:11:21.113Z,49.20
2017-10-22T13:13:49.359Z,50.30
2017-10-22T13:16:17.615Z,49.70
2017-10-22T13:18:46.250Z,49.60
2017-10-22T13:21:14.487Z,50.20
2017-10-22T13:23:43.494Z,50.00
2017-10-22T13:26:11.763Z,50.00
2017-10-22T13:28:40.007Z,48.80
2017-10-22T13:31:08.281Z,48.70
2017-10-22T13:33:36.574Z,49.40
2017-10-22T13:36:04.817Z,48.20
2017-10-22T13:38:33.058Z,48.40
2017-10-22T13:41:01.668Z,49.70
2017-10-22T13:43:29.944Z,50.30
2017-10-22T13:45:58.170Z,48.70
2017-10-22T13:48:26.455Z,47.90
2017-10-22T13:50:55.381Z,48.80
2017-10-22T13:53:23.623Z,48.10
2017-10-22T13:55:51.891Z,45.70
2017-10-22T13:58:21.194Z,46.40
2017-10-22T14:00:50.202Z,47.50
2017-10-22T14:03:18.914Z,47.50
2017-10-22T14:05:47.158Z,48.40
2017-10-22T14:08:15.411Z,48.10
2017-10-22T14:10:43.675Z,48.60
2017-10-22T14:13:11.950Z,49.20
2017-10-22T14:15:40.191Z,49.90
2017-10-22T14:18:08.458Z,50.00
2017-10-22T14:20:36.711Z,50.40
2017-10-22T14:23:05.867Z,51.20
2017-10-22T14:25:34.633Z,51.20
2017-10-22T14:28:02.871Z,51.70
2017-10-22T14:30:31.887Z,51.70
2017-10-22T14:33:00.204Z,51.60
2017-10-22T14:35:29.052Z,52.10
2017-10-22T14:37:58.188Z,51.90
2017-10-22T14:40:26.439Z,52.00
2017-10-22T14:42:54.676Z,51.90
2017-10-22T14:45:23.017Z,52.40
2017-10-22T14:47:51.886Z,52.10
2017-10-22T14:50:20.127Z,52.00
2017-10-22T14:52:49.141Z,52.40
2017-10-22T14:55:19.441Z,52.30
2017-10-22T14:57:49.636Z,52.50
2017-10-22T15:00:17.882Z,52.40
2017-10-22T15:02:46.150Z,53.10
2017-10-22T15:05:14.503Z,53.60
2017-10-22T15:07:43.528Z,54.20
2017-10-22T15:10:11.841Z,54.20
2017-10-22T15:12:40.080Z,54.80
2017-10-22T15:15:08.339Z,54.80
2017-10-22T15:17:36.602Z,55.30
2017-10-22T15:20:05.614Z,55.70
2017-10-22T15:22:38.057Z,55.70
2017-10-22T15:25:07.222Z,59.80
2017-10-22T15:27:35.442Z,59.70
2017-10-22T15:30:03.947Z,62.70
2017-10-22T15:32:32.203Z,65.10
2017-10-22T15:35:01.220Z,64.90
2017-10-22T15:37:29.498Z,64.70
2017-10-22T15:39:57.748Z,65.00
2017-10-22T15:42:25.991Z,65.90
2017-10-22T15:44:54.381Z,63.60
2017-10-22T15:47:22.635Z,63.20
2017-10-22T15:49:50.880Z,62.50
2017-10-22T15:52:19.600Z,61.60
2017-10-22T15:54:47.832Z,61.70
2017-10-22T15:57:16.087Z,61.50
2017-10-22T15:59:44.694Z,62.30
2017-10-22T16:02:13.690Z,63.70
2017-10-22T16:04:41.934Z,63.60
2017-10-22T16:07:10.204Z,64.20
2017-10-22T16:09:38.452Z,64.90
2017-10-22T16:12:06.855Z,64.30
2017-10-22T16:14:35.614Z,64.40
2017-10-22T16:17:03.862Z,64.80
2017-10-22T16:19:32.111Z,65.40
2017-10-22T16:22:00.378Z,65.20
2017-10-22T16:24:28.750Z,67.00
2017-10-22T16:26:57.000Z,67.10
2017-10-22T16:29:25.255Z,68.30
2017-10-22T16:31:53.499Z,68.50
2017-10-22T16:34:21.738Z,69.30
2017-10-22T16:36:50.095Z,70.00
2017-10-22T16:39:18.333Z,70.50
2017-10-22T16:41:47.399Z,72.80
2017-10-22T16:44:15.796Z,73.10
2017-10-22T16:46:44.159Z,73.30
2017-10-22T16:49:12.406Z,74.20
2017-10-22T16:51:40.667Z,75.60
2017-10-22T16:54:08.915Z,75.90
2017-10-22T16:56:37.930Z,78.00
2017-10-22T16:59:06.280Z,78.10
2017-10-22T17:01:34.784Z,77.50
2017-10-22T17:04:03.039Z,78.10
2017-10-22T17:06:31.346Z,79.10
2017-10-22T17:08:59.599Z,80.20
2017-10-22T17:11:28.619Z,79.80
2017-10-22T17:13:56.897Z,79.70
2017-10-22T17:16:25.147Z,79.10
2017-10-22T17:18:53.395Z,78.40
2017-10-22T17:21:21.757Z,78.80
2017-10-22T17:23:50.004Z,80.30
2017-10-22T17:26:18.254Z,80.10
2017-10-22T17:28:47.306Z,77.50
2017-10-22T17:31:15.539Z,77.70
2017-10-22T17:33:43.794Z,79.60
2017-10-22T17:36:12.850Z,77.80
2017-10-22T17:38:41.227Z,77.90
2017-10-22T17:41:09.455Z,78.90
2017-10-22T17:43:38.553Z,81.00
2017-10-22T17:46:06.993Z,81.00
2017-10-22T17:48:35.231Z,81.40
2017-10-22T17:51:03.779Z,81.70
2017-10-22T17:53:32.030Z,80.70
2017-10-22T17:56:00.271Z,80.40
2017-10-22T17:58:28.538Z,80.10
2017-10-22T18:00:56.786Z,81.00
2017-10-22T18:03:25.941Z,81.70
2017-10-22T18:05:54.636Z,81.90
2017-10-22T18:08:22.880Z,81.70
2017-10-22T18:10:51.119Z,82.40
2017-10-22T18:13:19.382Z,81.70
2017-10-22T18:15:47.626Z,82.40
2017-10-22T18:18:15.879Z,84.50
2017-10-22T18:20:44.154Z,83.50
2017-10-22T18:23:12.403Z,84.40
2017-10-22T18:25:40.646Z,81.30
2017-10-22T18:28:08.954Z,84.50
2017-10-22T18:30:37.963Z,83.60
2017-10-22T18:33:07.051Z,84.40
2017-10-22T18:35:35.310Z,84.30
2017-10-22T18:38:03.549Z,84.40
2017-10-22T18:40:31.802Z,83.90
2017-10-22T18:43:00.286Z,84.50
2017-10-22T18:45:28.719Z,83.80
2017-10-22T18:47:56.966Z,83.60
2017-10-22T18:50:25.646Z,83.20
2017-10-22T18:52:54.285Z,82.60
2017-10-22T18:55:22.570Z,82.50
2017-10-22T18:57:51.663Z,83.00
2017-10-22T19:00:20.683Z,82.30
2017-10-22T19:02:48.929Z,82.20
2017-10-22T19:05:18.070Z,82.30
2017-10-22T19:07:46.721Z,81.90
2017-10-22T19:10:15.010Z,83.20
2017-10-22T19:12:44.057Z,82.30
2017-10-22T19:15:12.467Z,82.20
2017-10-22T19:17:41.938Z,81.30
2017-10-22T19:20:10.858Z,81.20
2017-10-22T19:22:39.506Z,81.80
2017-10-22T19:25:07.782Z,82.40
2017-10-22T19:27:36.163Z,80.90
2017-10-22T19:30:04.409Z,81.60
2017-10-22T19:32:32.909Z,81.70
2017-10-22T19:35:01.370Z,82.30
2017-10-22T19:37:29.618Z,82.00
2017-10-22T19:39:58.139Z,82.40
2017-10-22T19:42:26.448Z,81.50
2017-10-22T19:44:55.026Z,81.80
2017-10-22T19:47:23.636Z,83.10
2017-10-22T19:49:51.946Z,82.30
2017-10-22T19:52:20.225Z,81.60
2017-10-22T19:54:48.471Z,81.70
2017-10-22T19:57:16.886Z,82.30
2017-10-22T19:59:45.139Z,82.10
2017-10-22T20:02:14.193Z,82.30
2017-10-22T20:04:42.478Z,82.30
2017-10-22T20:07:11.199Z,82.60
2017-10-22T20:09:40.215Z,82.70
2017-10-22T20:12:08.491Z,82.60
2017-10-22T20:14:36.739Z,83.00
2017-10-22T20:17:05.762Z,82.80
2017-10-22T20:19:34.230Z,82.70
2017-10-22T20:22:02.470Z,81.40
2017-10-22T20:24:30.710Z,82.10
2017-10-22T20:26:58.983Z,81.70
2017-10-22T20:29:27.221Z,82.80
2017-10-22T20:31:56.239Z,82.90
2017-10-22T20:34:24.502Z,82.80
2017-10-22T20:36:52.759Z,82.20
2017-10-22T20:39:21.002Z,81.40
2017-10-22T20:41:49.774Z,81.10
2017-10-22T20:44:18.014Z,81.40
2017-10-22T20:46:47.061Z,81.70
2017-10-22T20:49:15.386Z,82.50
2017-10-22T20:51:43.623Z,82.50
2017-10-22T20:54:11.874Z,82.90
2017-10-22T20:56:40.136Z,82.90
2017-10-22T20:59:08.384Z,82.60
2017-10-22T21:01:37.409Z,82.40
2017-10-22T21:04:05.890Z,82.40
2017-10-22T21:06:34.133Z,81.70
2017-10-22T21:09:03.166Z,81.10
2017-10-22T21:11:31.463Z,81.00
2017-10-22T21:13:59.684Z,81.70
2017-10-22T21:16:27.930Z,81.50
2017-10-22T21:18:56.202Z,81.60
2017-10-22T21:21:24.446Z,82.40
2017-10-22T21:23:52.694Z,83.10
2017-10-22T21:26:21.867Z,82.70
2017-10-22T21:28:50.110Z,83.00
2017-10-22T21:31:18.359Z,84.30
2017-10-22T21:33:46.614Z,84.60
2017-10-22T21:36:15.638Z,85.30
2017-10-22T21:38:43.888Z,85.20
2017-10-22T21:41:12.155Z,85.60
2017-10-22T21:43:40.399Z,84.80
2017-10-22T21:46:08.649Z,84.20
2017-10-22T21:48:36.969Z,84.20
2017-10-22T21:51:05.210Z,84.40
2017-10-22T21:53:33.458Z,85.40
2017-10-22T21:56:04.782Z,85.50
2017-10-22T21:58:33.798Z,85.90
2017-10-22T22:01:02.943Z,85.80
2017-10-22T22:03:31.198Z,85.70
2017-10-22T22:05:59.448Z,87.80
2017-10-22T22:08:28.467Z,88.20
2017-10-22T22:10:56.958Z,88.20
2017-10-22T22:13:25.222Z,87.30
2017-10-22T22:15:53.474Z,88.50
2017-10-22T22:18:22.518Z,88.50
2017-10-22T22:20:50.757Z,88.40
2017-10-22T22:23:19.007Z,88.10
2017-10-22T22:25:47.280Z,88.60
2017-10-22T22:28:15.523Z,87.80
2017-10-22T22:30:43.763Z,89.40
2017-10-22T22:33:12.679Z,89.30
2017-10-22T22:35:40.926Z,89.00
2017-10-22T22:38:09.391Z,88.70
2017-10-22T22:40:38.430Z,88.10
2017-10-22T22:43:06.686Z,87.90
2017-10-22T22:45:34.935Z,87.10
2017-10-22T22:48:03.975Z,87.70
2017-10-22T22:50:32.218Z,87.60
2017-10-22T22:53:00.462Z,87.10
2017-10-22T22:55:28.835Z,88.30
2017-10-22T22:57:57.089Z,89.00
2017-10-22T23:00:25.323Z,88.70
2017-10-22T23:02:54.353Z,89.20
2017-10-22T23:05:22.591Z,89.10
2017-10-22T23:07:50.838Z,89.20
2017-10-22T23:10:19.561Z,89.00
2017-10-22T23:12:48.576Z,87.00
2017-10-22T23:15:16.818Z,87.00
2017-10-22T23:17:45.430Z,88.50
2017-10-22T23:20:13.679Z,89.50
2017-10-22T23:22:42.706Z,89.60
2017-10-22T23:25:10.975Z,89.60
2017-10-22T23:27:39.223Z,88.10
2017-10-22T23:30:07.461Z,88.50
2017-10-22T23:32:35.734Z,89.30
2017-10-22T23:35:03.983Z,89.10
2017-10-22T23:37:32.222Z,88.40
2017-10-22T23:40:01.576Z,88.30
2017-10-22T23:42:29.827Z,87.90
2017-10-22T23:44:58.066Z,87.30
2017-10-22T23:47:28.314Z,87.90
2017-10-22T23:49:57.326Z,87.70
2017-10-22T23:52:25.566Z,87.60
2017-10-22T23:54:53.835Z,87.80
2017-10-22T23:57:22.129Z,86.90
2017-10-22T23:59:51.146Z,87.30
